createdAt,value
2023-01-29T00:02:06.433Z,48.42
2023-01-29T00:04:33.373Z,42.40
2023-01-29T00:07:00.218Z,44.63
2023-01-29T00:09:28.114Z,43.97
2023-01-29T00:11:54.748Z,40.70
2023-01-29T00:14:21.570Z,44.33
2023-01-29T00:16:48.180Z,43.17
2023-01-29T00:19:14.900Z,41.83
2023-01-29T00:21:41.560Z,40.65
2023-01-29T00:24:08.290Z,43.03
2023-01-29T00:26:35.354Z,42.13
2023-01-29T00:29:02.671Z,45.72
2023-01-29T00:31:29.361Z,45.10
2023-01-29T00:33:56.318Z,42.17
2023-01-29T00:36:23.440Z,42.70
2023-01-29T00:38:58.886Z,43.00
2023-01-29T00:41:52.045Z,43.05
2023-01-29T00:44:37.159Z,47.45
2023-01-29T00:47:04.794Z,50.28
2023-01-29T00:49:31.498Z,49.75
2023-01-29T00:52:17.267Z,42.80
2023-01-29T00:54:43.854Z,47.28
2023-01-29T00:57:10.563Z,50.25
2023-01-29T00:59:37.495Z,43.75
2023-01-29T01:02:22.566Z,47.75
2023-01-29T01:04:49.238Z,49.72
2023-01-29T01:07:15.842Z,50.97
2023-01-29T01:10:01.105Z,52.10
2023-01-29T01:12:29.028Z,52.30
2023-01-29T01:14:55.770Z,49.80
2023-01-29T01:17:22.717Z,51.45
2023-01-29T01:19:49.488Z,47.60
2023-01-29T01:22:16.374Z,51.85
2023-01-29T01:24:44.100Z,48.47
2023-01-29T01:27:10.825Z,53.17
2023-01-29T01:29:37.528Z,50.50
2023-01-29T01:32:04.517Z,53.83
2023-01-29T01:34:31.284Z,53.08
2023-01-29T01:36:57.872Z,52.97
2023-01-29T01:39:25.407Z,51.72
2023-01-29T01:41:53.684Z,51.83
2023-01-29T01:44:55.897Z,52.92
2023-01-29T01:47:31.366Z,49.90
2023-01-29T01:50:06.655Z,48.50
2023-01-29T01:52:34.254Z,61.47
2023-01-29T01:55:01.211Z,52.40
2023-01-29T01:57:31.063Z,47.33
2023-01-29T02:00:10.000Z,49.80
2023-01-29T02:03:01.021Z,48.67
2023-01-29T02:05:50.130Z,54.17
2023-01-29T02:08:42.895Z,51.13
2023-01-29T02:11:10.269Z,53.22
2023-01-29T02:13:36.978Z,48.05
2023-01-29T02:16:03.720Z,54.08
2023-01-29T02:18:30.349Z,55.58
2023-01-29T02:21:03.070Z,50.72
2023-01-29T02:24:05.271Z,53.17
2023-01-29T02:26:53.910Z,54.88
2023-01-29T02:29:34.449Z,52.90
2023-01-29T02:32:21.099Z,59.17
2023-01-29T02:35:32.119Z,52.33
2023-01-29T02:38:06.030Z,55.22
2023-01-29T02:40:40.992Z,57.08
2023-01-29T02:43:19.705Z,52.17
2023-01-29T02:45:49.355Z,54.25
2023-01-29T02:48:22.963Z,54.05
2023-01-29T02:50:58.899Z,48.97
2023-01-29T02:53:36.330Z,56.30
2023-01-29T02:56:10.516Z,52.92
2023-01-29T02:58:46.209Z,49.38
2023-01-29T03:01:20.756Z,49.35
2023-01-29T03:03:55.607Z,48.30
2023-01-29T03:06:29.858Z,53.95
2023-01-29T03:08:58.989Z,47.03
2023-01-29T03:11:34.054Z,47.28
2023-01-29T03:14:08.878Z,45.15
2023-01-29T03:16:51.919Z,49.65
2023-01-29T03:19:18.913Z,46.53
2023-01-29T03:22:00.183Z,49.25
2023-01-29T03:25:00.426Z,50.25
2023-01-29T03:27:57.433Z,49.03
2023-01-29T03:30:46.783Z,49.28
2023-01-29T03:33:40.752Z,51.58
2023-01-29T03:36:38.193Z,49.55
2023-01-29T03:39:07.098Z,52.20
2023-01-29T03:41:58.561Z,49.53
2023-01-29T03:44:33.820Z,51.80
2023-01-29T03:47:26.179Z,45.20
2023-01-29T03:50:02.794Z,47.42
2023-01-29T03:52:51.951Z,49.00
2023-01-29T03:55:55.355Z,47.67
2023-01-29T04:01:21.253Z,48.58
2023-01-29T04:04:21.849Z,46.33
2023-01-29T04:06:53.070Z,47.33
2023-01-29T04:09:27.667Z,48.55
2023-01-29T04:12:02.176Z,45.42
2023-01-29T04:14:31.977Z,47.60
2023-01-29T04:17:03.529Z,48.08
2023-01-29T04:19:50.647Z,44.22
2023-01-29T04:22:33.781Z,45.50
2023-01-29T04:25:15.486Z,44.35
2023-01-29T04:27:45.997Z,43.40
2023-01-29T04:30:51.659Z,47.53
2023-01-29T04:33:18.336Z,48.50
2023-01-29T04:36:07.205Z,53.00
2023-01-29T04:42:11.004Z,51.50
2023-01-29T04:44:50.163Z,50.92
2023-01-29T04:47:25.785Z,47.35
2023-01-29T04:50:13.723Z,50.42
2023-01-29T04:52:46.647Z,47.05
2023-01-29T04:55:32.081Z,50.30
2023-01-29T04:58:04.698Z,46.20
2023-01-29T05:00:36.842Z,49.35
2023-01-29T05:03:03.963Z,53.83
2023-01-29T05:05:30.903Z,45.70
2023-01-29T05:07:59.115Z,43.55
2023-01-29T05:10:26.805Z,43.10
2023-01-29T05:13:00.436Z,42.85
2023-01-29T05:15:33.506Z,37.55
2023-01-29T05:20:33.401Z,44.15
2023-01-29T05:23:00.003Z,39.20
2023-01-29T05:25:32.315Z,39.75
2023-01-29T05:28:11.893Z,41.72
2023-01-29T05:30:39.926Z,37.35
2023-01-29T05:33:15.325Z,43.23
2023-01-29T05:35:42.368Z,39.65
2023-01-29T05:38:09.063Z,46.88
2023-01-29T05:40:36.422Z,42.58
2023-01-29T05:43:03.193Z,34.53
2023-01-29T05:45:29.909Z,37.37
2023-01-29T05:47:58.089Z,38.13
2023-01-29T05:50:25.935Z,41.57
2023-01-29T05:52:59.903Z,34.93
2023-01-29T05:55:29.402Z,35.90
2023-01-29T05:57:56.285Z,33.67
2023-01-29T06:00:23.131Z,34.50
2023-01-29T06:02:49.887Z,29.43
2023-01-29T06:05:16.621Z,27.73
2023-01-29T06:07:45.339Z,29.57
2023-01-29T06:10:17.301Z,30.53
2023-01-29T06:12:44.764Z,28.10
2023-01-29T06:15:12.467Z,34.33
2023-01-29T06:17:39.059Z,26.93
2023-01-29T06:20:06.293Z,32.03
2023-01-29T06:22:33.897Z,32.13
2023-01-29T06:25:00.546Z,31.77
2023-01-29T06:27:27.289Z,27.53
2023-01-29T06:29:53.887Z,31.30
2023-01-29T06:32:20.493Z,35.07
2023-01-29T06:34:49.448Z,30.13
2023-01-29T06:37:16.375Z,26.67
2023-01-29T06:39:42.986Z,30.27
2023-01-29T06:42:10.087Z,31.90
2023-01-29T06:44:37.035Z,29.90
2023-01-29T06:47:03.689Z,30.70
2023-01-29T06:49:30.306Z,29.23
2023-01-29T06:51:57.408Z,30.03
2023-01-29T06:54:24.134Z,35.33
2023-01-29T06:56:51.966Z,31.17
2023-01-29T06:59:18.551Z,33.27
2023-01-29T07:01:45.197Z,31.37
2023-01-29T07:04:11.838Z,29.73
2023-01-29T07:06:38.490Z,31.13
2023-01-29T07:09:05.362Z,29.30
2023-01-29T07:11:32.205Z,30.97
2023-01-29T07:13:58.789Z,29.90
2023-01-29T07:16:26.430Z,31.17
2023-01-29T07:18:53.248Z,29.80
2023-01-29T07:21:19.881Z,25.47
2023-01-29T07:23:46.557Z,25.63
2023-01-29T07:26:13.249Z,26.23
2023-01-29T07:28:40.996Z,31.80
2023-01-29T07:31:10.139Z,38.10
2023-01-29T07:33:36.766Z,48.78
2023-01-29T07:36:07.833Z,45.57
2023-01-29T07:38:34.508Z,40.90
2023-01-29T07:41:02.881Z,38.33
2023-01-29T07:43:30.248Z,37.42
2023-01-29T07:45:57.053Z,41.60
2023-01-29T07:48:23.711Z,47.17
2023-01-29T07:50:57.248Z,50.10
2023-01-29T07:53:24.022Z,43.97
2023-01-29T07:55:50.762Z,42.00
2023-01-29T07:58:17.514Z,35.90
2023-01-29T08:00:44.294Z,34.28
2023-01-29T08:03:17.290Z,33.63
2023-01-29T08:05:44.909Z,34.55
2023-01-29T08:08:12.075Z,31.15
2023-01-29T08:10:39.727Z,36.95
2023-01-29T08:13:07.136Z,31.92
2023-01-29T08:15:34.291Z,50.90
2023-01-29T08:18:02.429Z,42.83
2023-01-29T08:20:29.118Z,35.72
2023-01-29T08:23:05.904Z,35.75
2023-01-29T08:25:33.609Z,34.85
2023-01-29T08:28:01.128Z,32.10
2023-01-29T08:30:30.244Z,29.48
2023-01-29T08:32:56.866Z,29.83
2023-01-29T08:35:24.480Z,34.08
2023-01-29T08:37:59.439Z,31.27
2023-01-29T08:40:31.948Z,33.15
2023-01-29T08:43:09.029Z,34.13
2023-01-29T08:45:38.570Z,34.85
2023-01-29T08:48:06.054Z,30.67
2023-01-29T08:50:34.831Z,29.98
2023-01-29T08:53:04.428Z,31.83
2023-01-29T08:55:31.007Z,30.52
2023-01-29T08:57:57.584Z,31.38
2023-01-29T09:00:24.598Z,26.73
2023-01-29T09:02:51.222Z,27.92
2023-01-29T09:05:18.153Z,26.60
2023-01-29T09:07:45.073Z,23.65
2023-01-29T09:10:12.339Z,26.88
2023-01-29T09:12:39.053Z,25.45
2023-01-29T09:15:06.204Z,25.02
2023-01-29T09:17:32.767Z,23.92
2023-01-29T09:19:59.390Z,25.02
2023-01-29T09:22:25.959Z,23.85
2023-01-29T09:24:52.542Z,24.42
2023-01-29T09:27:19.277Z,22.27
2023-01-29T09:29:45.838Z,20.65
2023-01-29T09:32:12.472Z,18.77
2023-01-29T09:34:39.082Z,19.08
2023-01-29T09:37:06.499Z,16.27
2023-01-29T09:39:33.212Z,19.52
2023-01-29T09:42:22.349Z,18.50
2023-01-29T09:45:20.991Z,15.18
2023-01-29T09:47:48.816Z,12.13
2023-01-29T09:50:26.191Z,11.90
2023-01-29T09:52:58.825Z,10.75
2023-01-29T09:58:19.087Z,8.52
2023-01-29T10:00:58.606Z,8.27
2023-01-29T10:03:37.298Z,9.98
2023-01-29T10:06:28.199Z,11.25
2023-01-29T10:09:26.007Z,11.18
2023-01-29T10:12:24.999Z,12.45
2023-01-29T10:15:29.395Z,8.50
2023-01-29T10:18:05.647Z,10.93
2023-01-29T10:20:50.252Z,14.35
2023-01-29T10:23:33.493Z,11.05
2023-01-29T10:26:01.145Z,12.45
2023-01-29T10:28:47.653Z,14.27
2023-01-29T10:31:21.061Z,13.48
2023-01-29T10:34:02.030Z,14.82
2023-01-29T10:36:57.034Z,18.20
2023-01-29T10:39:26.705Z,16.08
2023-01-29T10:42:05.707Z,16.13
2023-01-29T10:45:00.511Z,15.75
2023-01-29T10:47:36.385Z,12.40
2023-01-29T10:50:20.740Z,14.18
2023-01-29T10:52:57.991Z,14.70
2023-01-29T10:55:40.371Z,13.30
2023-01-29T10:58:16.339Z,13.57
2023-01-29T11:00:43.063Z,15.35
2023-01-29T11:03:27.602Z,16.77
2023-01-29T11:06:32.894Z,15.05
2023-01-29T11:08:59.409Z,17.13
2023-01-29T11:11:41.941Z,15.88
2023-01-29T11:14:29.927Z,16.17
2023-01-29T11:16:56.755Z,15.98
2023-01-29T11:19:41.700Z,16.35
2023-01-29T11:22:17.946Z,15.82
2023-01-29T11:24:44.597Z,16.58
2023-01-29T11:27:25.938Z,16.10
2023-01-29T11:29:53.947Z,17.35
2023-01-29T11:32:23.591Z,15.75
2023-01-29T11:35:02.261Z,17.25
2023-01-29T11:37:37.570Z,18.10
2023-01-29T11:40:19.561Z,21.92
2023-01-29T11:42:47.064Z,22.30
2023-01-29T11:45:22.725Z,19.65
2023-01-29T11:47:56.958Z,19.42
2023-01-29T11:50:26.514Z,18.25
2023-01-29T11:52:53.687Z,15.80
2023-01-29T11:55:24.561Z,17.92
2023-01-29T11:57:54.392Z,16.27
2023-01-29T12:00:27.583Z,18.60
2023-01-29T12:03:02.438Z,18.60
2023-01-29T12:05:29.212Z,18.42
2023-01-29T12:07:57.756Z,17.85
2023-01-29T12:10:35.844Z,16.98
2023-01-29T12:13:05.183Z,18.63
2023-01-29T12:15:31.854Z,18.35
2023-01-29T12:18:04.876Z,18.30
2023-01-29T12:23:36.617Z,16.80
2023-01-29T12:26:12.884Z,18.00
2023-01-29T12:28:44.779Z,17.75
2023-01-29T12:31:23.210Z,17.30
2023-01-29T12:34:10.885Z,21.98
2023-01-29T12:36:53.125Z,15.77
2023-01-29T12:39:20.937Z,16.17
2023-01-29T12:42:05.058Z,16.40
2023-01-29T12:44:59.443Z,19.08
2023-01-29T12:47:48.553Z,18.27
2023-01-29T12:50:21.075Z,19.25
2023-01-29T12:52:54.074Z,22.73
2023-01-29T12:58:12.675Z,21.77
2023-01-29T13:00:43.327Z,19.50
2023-01-29T13:03:43.154Z,17.17
2023-01-29T13:06:15.681Z,16.35
2023-01-29T13:08:51.537Z,19.33
2023-01-29T13:11:33.656Z,18.70
2023-01-29T13:14:09.329Z,19.67
2023-01-29T13:16:45.372Z,17.30
2023-01-29T13:19:20.832Z,16.85
2023-01-29T13:21:48.685Z,17.23
2023-01-29T13:24:18.479Z,18.90
2023-01-29T13:26:49.284Z,16.38
2023-01-29T13:29:30.284Z,15.18
2023-01-29T13:31:59.395Z,16.00
2023-01-29T13:34:25.967Z,15.10
2023-01-29T13:36:56.324Z,18.02
2023-01-29T13:39:52.153Z,16.42
2023-01-29T13:42:44.019Z,16.52
2023-01-29T13:45:22.723Z,15.73
2023-01-29T13:47:51.402Z,14.75
2023-01-29T13:50:38.258Z,14.35
2023-01-29T13:53:08.239Z,18.23
2023-01-29T13:55:39.651Z,15.45
2023-01-29T13:58:13.999Z,15.90
2023-01-29T14:00:40.597Z,15.73
2023-01-29T14:03:11.779Z,14.85
2023-01-29T14:05:54.290Z,16.23
2023-01-29T14:08:36.060Z,14.20
2023-01-29T14:11:15.276Z,16.20
2023-01-29T14:13:43.773Z,16.08
2023-01-29T14:16:10.486Z,15.88
2023-01-29T14:18:47.019Z,15.45
2023-01-29T14:21:16.604Z,17.92
2023-01-29T14:24:09.351Z,16.45
2023-01-29T14:26:38.977Z,19.50
2023-01-29T14:29:25.440Z,18.42
2023-01-29T14:32:08.538Z,18.42
2023-01-29T14:34:41.992Z,18.05
2023-01-29T14:37:14.832Z,20.48
2023-01-29T14:39:46.088Z,19.15
2023-01-29T14:42:26.995Z,18.48
2023-01-29T14:45:22.010Z,20.13
2023-01-29T14:47:48.694Z,16.98
2023-01-29T14:50:33.043Z,17.67
2023-01-29T14:53:12.869Z,19.30
2023-01-29T14:55:52.901Z,19.58
2023-01-29T14:58:33.092Z,20.85
2023-01-29T15:01:02.090Z,21.40
2023-01-29T15:03:43.015Z,21.42
2023-01-29T15:06:16.297Z,19.67
2023-01-29T15:08:53.697Z,20.42
2023-01-29T15:11:35.765Z,18.17
2023-01-29T15:14:25.029Z,18.90
2023-01-29T15:17:17.225Z,15.23
2023-01-29T15:19:48.429Z,17.95
2023-01-29T15:22:23.460Z,16.73
2023-01-29T15:25:07.614Z,17.70
2023-01-29T15:27:34.655Z,18.83
2023-01-29T15:30:03.727Z,18.77
2023-01-29T15:32:37.126Z,18.58
2023-01-29T15:35:19.434Z,18.02
2023-01-29T15:37:59.184Z,16.80
2023-01-29T15:40:26.821Z,16.25
2023-01-29T15:42:53.378Z,16.27
2023-01-29T15:45:27.384Z,19.40
2023-01-29T15:48:17.325Z,18.10
2023-01-29T15:50:45.207Z,13.93
2023-01-29T15:53:19.686Z,15.38
2023-01-29T15:55:47.625Z,19.23
2023-01-29T15:58:28.267Z,18.75
2023-01-29T16:00:56.779Z,18.35
2023-01-29T16:03:26.367Z,30.50
2023-01-29T16:05:54.422Z,20.27
2023-01-29T16:08:23.410Z,17.08
2023-01-29T16:10:55.319Z,19.35
2023-01-29T16:13:29.085Z,19.20
2023-01-29T16:16:01.238Z,17.02
2023-01-29T16:18:41.085Z,17.55
2023-01-29T16:21:22.749Z,17.65
2023-01-29T16:23:53.949Z,18.15
2023-01-29T16:26:25.648Z,18.75
2023-01-29T16:28:52.690Z,16.77
2023-01-29T16:31:27.216Z,18.08
2023-01-29T16:33:56.710Z,17.83
2023-01-29T16:36:26.589Z,17.75
2023-01-29T16:39:01.954Z,17.48
2023-01-29T16:41:31.812Z,16.70
2023-01-29T16:44:04.149Z,18.50
2023-01-29T16:46:35.576Z,17.13
2023-01-29T16:49:02.673Z,18.48
2023-01-29T16:51:36.741Z,19.83
2023-01-29T16:54:24.947Z,16.83
2023-01-29T16:57:02.021Z,15.43
2023-01-29T16:59:39.528Z,18.50
2023-01-29T17:02:22.405Z,18.50
2023-01-29T17:04:51.341Z,15.55
2023-01-29T17:07:21.392Z,17.35
2023-01-29T17:09:54.255Z,19.73
2023-01-29T17:12:25.395Z,19.38
2023-01-29T17:15:00.437Z,17.75
2023-01-29T17:17:31.341Z,21.48
2023-01-29T17:20:02.569Z,23.42
2023-01-29T17:22:29.235Z,21.58
2023-01-29T17:24:55.824Z,21.65
2023-01-29T17:27:23.104Z,20.42
2023-01-29T17:29:49.775Z,19.48
2023-01-29T17:32:18.785Z,20.58
2023-01-29T17:34:46.894Z,22.55
2023-01-29T17:37:15.735Z,20.75
2023-01-29T17:39:43.941Z,18.33
2023-01-29T17:42:13.983Z,19.10
2023-01-29T17:44:43.276Z,21.92
2023-01-29T17:47:15.125Z,19.52
2023-01-29T17:49:42.752Z,21.00
2023-01-29T17:52:09.712Z,19.77
2023-01-29T17:54:36.525Z,19.55
2023-01-29T17:57:03.212Z,20.48
2023-01-29T17:59:32.060Z,20.88
2023-01-29T18:01:59.285Z,20.98
2023-01-29T18:04:26.415Z,20.55
2023-01-29T18:06:53.436Z,19.70
2023-01-29T18:09:21.851Z,19.50
2023-01-29T18:11:49.912Z,23.60
2023-01-29T18:14:17.384Z,19.67
2023-01-29T18:16:45.041Z,21.58
2023-01-29T18:19:31.187Z,22.85
2023-01-29T18:21:57.795Z,21.90
2023-01-29T18:24:26.519Z,22.17
2023-01-29T18:26:53.279Z,19.08
2023-01-29T18:29:19.936Z,22.48
2023-01-29T18:31:49.174Z,21.08
2023-01-29T18:34:15.916Z,21.42
2023-01-29T18:36:46.636Z,24.63
2023-01-29T18:39:14.625Z,24.17
2023-01-29T18:41:41.265Z,23.52
2023-01-29T18:44:07.936Z,26.30
2023-01-29T18:46:34.576Z,23.02
2023-01-29T18:49:01.179Z,25.48
2023-01-29T18:51:27.756Z,25.23
2023-01-29T18:53:54.381Z,27.25
2023-01-29T18:56:20.993Z,23.40
2023-01-29T18:58:52.167Z,25.65
2023-01-29T19:01:22.404Z,24.80
2023-01-29T19:03:49.057Z,23.80
2023-01-29T19:06:15.659Z,23.73
2023-01-29T19:08:43.094Z,24.05
2023-01-29T19:11:12.324Z,22.40
2023-01-29T19:13:39.106Z,22.27
2023-01-29T19:16:07.907Z,22.05
2023-01-29T19:18:34.533Z,20.95
2023-01-29T19:21:07.511Z,22.13
2023-01-29T19:23:34.185Z,21.35
2023-01-29T19:26:00.747Z,20.83
2023-01-29T19:28:27.359Z,23.73
2023-01-29T19:30:57.917Z,23.73
2023-01-29T19:33:25.689Z,21.48
2023-01-29T19:35:52.326Z,20.02
2023-01-29T19:38:21.221Z,25.08
2023-01-29T19:40:48.469Z,23.48
2023-01-29T19:43:17.569Z,20.60
2023-01-29T19:45:50.407Z,22.88
2023-01-29T19:48:21.535Z,21.30
2023-01-29T19:50:52.841Z,19.55
2023-01-29T19:53:19.457Z,19.45
2023-01-29T19:55:46.125Z,19.90
2023-01-29T19:58:12.710Z,24.17
2023-01-29T20:00:39.588Z,21.00
2023-01-29T20:03:06.240Z,21.23
2023-01-29T20:05:35.919Z,21.13
2023-01-29T20:08:02.501Z,22.83
2023-01-29T20:10:29.081Z,24.20
2023-01-29T20:12:55.686Z,24.77
2023-01-29T20:15:22.566Z,21.20
2023-01-29T20:17:49.143Z,21.38
2023-01-29T20:20:16.902Z,20.23
2023-01-29T20:22:43.918Z,21.17
2023-01-29T20:25:13.572Z,22.05
2023-01-29T20:27:40.667Z,20.50
2023-01-29T20:30:08.240Z,19.23
2023-01-29T20:32:35.333Z,21.73
2023-01-29T20:35:02.180Z,22.05
2023-01-29T20:37:28.781Z,22.15
2023-01-29T20:39:55.415Z,22.00
2023-01-29T20:42:22.107Z,20.67
2023-01-29T20:44:48.673Z,20.38
2023-01-29T20:47:15.473Z,18.98
2023-01-29T20:49:42.043Z,22.73
2023-01-29T20:52:10.285Z,21.75
2023-01-29T20:54:37.181Z,20.50
2023-01-29T20:57:03.910Z,20.27
2023-01-29T20:59:31.444Z,22.27
2023-01-29T21:01:58.104Z,20.90
2023-01-29T21:04:24.879Z,20.17
2023-01-29T21:06:51.553Z,23.13
2023-01-29T21:09:18.148Z,21.13
2023-01-29T21:11:45.094Z,20.25
2023-01-29T21:14:11.814Z,22.38
2023-01-29T21:16:38.471Z,22.58
2023-01-29T21:19:05.084Z,21.95
2023-01-29T21:21:31.749Z,22.60
2023-01-29T21:23:58.420Z,22.45
2023-01-29T21:26:25.102Z,23.67
2023-01-29T21:28:51.701Z,26.38
2023-01-29T21:31:18.561Z,24.33
2023-01-29T21:33:45.195Z,22.50
2023-01-29T21:36:11.960Z,24.75
2023-01-29T21:38:39.620Z,22.75
2023-01-29T21:41:09.598Z,22.08
2023-01-29T21:43:37.261Z,22.58
2023-01-29T21:46:11.300Z,23.15
2023-01-29T21:48:39.319Z,22.63
2023-01-29T21:51:06.408Z,24.52
2023-01-29T21:53:33.151Z,26.02
2023-01-29T21:56:01.744Z,25.33
2023-01-29T21:58:28.876Z,22.83
2023-01-29T22:00:55.511Z,24.40
2023-01-29T22:03:22.366Z,26.83
2023-01-29T22:05:50.073Z,24.27
2023-01-29T22:08:17.939Z,22.75
2023-01-29T22:10:44.777Z,23.70
2023-01-29T22:13:11.536Z,26.92
2023-01-29T22:15:38.106Z,24.70
2023-01-29T22:18:04.799Z,26.10
2023-01-29T22:20:31.678Z,24.00
2023-01-29T22:23:00.256Z,24.95
2023-01-29T22:25:27.548Z,26.55
2023-01-29T22:27:54.297Z,26.60
2023-01-29T22:30:23.210Z,26.35
2023-01-29T22:32:50.503Z,26.88
2023-01-29T22:35:17.574Z,24.33
2023-01-29T22:37:45.107Z,29.52
2023-01-29T22:40:12.882Z,30.45
2023-01-29T22:42:39.510Z,29.38
2023-01-29T22:45:07.389Z,31.25
2023-01-29T22:47:33.999Z,31.65
2023-01-29T22:50:00.608Z,29.55
2023-01-29T22:52:28.368Z,28.08
2023-01-29T22:54:55.049Z,27.95
2023-01-29T22:57:21.728Z,27.13
2023-01-29T22:59:48.349Z,27.35
2023-01-29T23:02:15.006Z,28.17
2023-01-29T23:04:41.763Z,29.00
2023-01-29T23:07:08.370Z,28.58
2023-01-29T23:09:34.963Z,32.53
2023-01-29T23:12:01.582Z,26.30
2023-01-29T23:14:28.173Z,28.70
2023-01-29T23:16:54.803Z,30.35
2023-01-29T23:19:21.477Z,27.45
2023-01-29T23:21:48.073Z,28.83
2023-01-29T23:24:15.240Z,28.57
2023-01-29T23:27:00.153Z,29.52
2023-01-29T23:29:26.817Z,26.90
2023-01-29T23:31:53.410Z,30.10
2023-01-29T23:34:20.478Z,28.83
2023-01-29T23:36:47.509Z,26.70
2023-01-29T23:39:14.106Z,30.00
2023-01-29T23:41:40.690Z,29.57
2023-01-29T23:44:07.316Z,28.98
2023-01-29T23:46:33.974Z,28.92
2023-01-29T23:49:00.745Z,30.10
2023-01-29T23:51:27.397Z,31.83
2023-01-29T23:53:54.265Z,29.27
2023-01-29T23:56:20.853Z,29.75
2023-01-29T23:58:47.517Z,32.23
